createdAt,value
2023-01-25T00:00:55.921Z,6.85
2023-01-25T00:03:22.567Z,6.63
2023-01-25T00:05:49.122Z,8.88
2023-01-25T00:08:15.728Z,7.60
2023-01-25T00:10:42.240Z,8.90
2023-01-25T00:13:08.711Z,6.95
2023-01-25T00:15:35.194Z,6.97
2023-01-25T00:18:01.695Z,6.32
2023-01-25T00:20:28.351Z,8.45
2023-01-25T00:22:54.800Z,7.10
2023-01-25T00:25:21.263Z,8.15
2023-01-25T00:27:47.696Z,7.13
2023-01-25T00:30:20.314Z,7.60
2023-01-25T00:33:26.532Z,7.57
2023-01-25T00:35:57.011Z,6.68
2023-01-25T00:38:43.778Z,6.45
2023-01-25T00:41:10.278Z,6.55
2023-01-25T00:43:36.783Z,6.90
2023-01-25T00:46:03.451Z,6.97
2023-01-25T00:48:30.096Z,7.93
2023-01-25T00:51:01.357Z,7.55
2023-01-25T00:53:27.839Z,6.95
2023-01-25T00:55:54.651Z,6.47
2023-01-25T00:58:21.203Z,7.57
2023-01-25T01:00:47.782Z,7.40
2023-01-25T01:03:14.357Z,7.72
2023-01-25T01:05:40.755Z,7.80
2023-01-25T01:08:07.216Z,6.88
2023-01-25T01:10:33.707Z,7.30
2023-01-25T01:13:00.141Z,6.53
2023-01-25T01:15:26.539Z,6.40
2023-01-25T01:17:52.960Z,6.05
2023-01-25T01:20:19.512Z,6.32
2023-01-25T01:22:46.008Z,6.45
2023-01-25T01:25:13.375Z,5.95
2023-01-25T01:27:39.895Z,6.15
2023-01-25T01:30:07.056Z,6.53
2023-01-25T01:32:33.605Z,6.40
2023-01-25T01:35:00.238Z,6.13
2023-01-25T01:37:26.823Z,6.18
2023-01-25T01:39:53.291Z,6.22
2023-01-25T01:42:19.820Z,6.25
2023-01-25T01:44:52.029Z,6.40
2023-01-25T01:47:24.980Z,5.78
2023-01-25T01:49:55.561Z,6.10
2023-01-25T01:52:28.632Z,6.03
2023-01-25T01:55:13.270Z,5.90
2023-01-25T01:57:53.101Z,6.20
2023-01-25T02:00:27.207Z,7.03
2023-01-25T02:02:54.865Z,6.15
2023-01-25T02:05:30.559Z,6.47
2023-01-25T02:10:26.814Z,6.85
2023-01-25T02:12:55.737Z,6.03
2023-01-25T02:15:22.336Z,5.60
2023-01-25T02:17:49.843Z,6.82
2023-01-25T02:20:49.080Z,6.57
2023-01-25T02:23:24.620Z,6.53
2023-01-25T02:25:51.170Z,6.82
2023-01-25T02:28:30.080Z,6.60
2023-01-25T02:30:56.590Z,7.43
2023-01-25T02:33:27.339Z,6.85
2023-01-25T02:35:59.697Z,6.32
2023-01-25T02:38:26.740Z,6.60
2023-01-25T02:41:02.276Z,6.75
2023-01-25T02:43:32.534Z,6.72
2023-01-25T02:46:10.850Z,6.45
2023-01-25T02:48:37.480Z,6.90
2023-01-25T02:51:07.332Z,6.70
2023-01-25T02:53:33.891Z,7.75
2023-01-25T02:56:00.363Z,6.80
2023-01-25T02:58:26.759Z,7.10
2023-01-25T03:00:55.675Z,7.40
2023-01-25T03:03:22.091Z,7.63
2023-01-25T03:05:48.545Z,6.60
2023-01-25T03:08:14.971Z,6.55
2023-01-25T03:10:41.454Z,6.72
2023-01-25T03:13:07.859Z,7.68
2023-01-25T03:15:34.390Z,6.80
2023-01-25T03:18:01.446Z,7.28
2023-01-25T03:20:29.345Z,7.68
2023-01-25T03:22:55.743Z,7.97
2023-01-25T03:25:22.260Z,8.00
2023-01-25T03:27:48.779Z,7.80
2023-01-25T03:30:15.267Z,9.10
2023-01-25T03:32:41.724Z,7.30
2023-01-25T03:35:08.943Z,7.80
2023-01-25T03:37:35.553Z,7.90
2023-01-25T03:40:02.046Z,8.30
2023-01-25T03:42:28.605Z,6.95
2023-01-25T03:44:55.113Z,7.93
2023-01-25T03:47:21.566Z,7.57
2023-01-25T03:49:48.057Z,7.13
2023-01-25T03:52:14.465Z,6.65
2023-01-25T03:54:40.965Z,7.20
2023-01-25T03:57:07.457Z,7.07
2023-01-25T03:59:33.873Z,6.60
2023-01-25T04:02:00.297Z,6.63
2023-01-25T04:04:26.697Z,7.47
2023-01-25T04:06:53.160Z,7.40
2023-01-25T04:09:20.160Z,7.60
2023-01-25T04:11:49.539Z,8.02
2023-01-25T04:14:15.960Z,7.10
2023-01-25T04:16:42.588Z,7.32
2023-01-25T04:19:09.155Z,6.25
2023-01-25T04:21:35.568Z,7.07
2023-01-25T04:24:02.024Z,7.15
2023-01-25T04:26:28.479Z,7.00
2023-01-25T04:28:54.874Z,6.70
2023-01-25T04:31:21.396Z,6.90
2023-01-25T04:33:49.494Z,7.22
2023-01-25T04:36:17.033Z,7.38
2023-01-25T04:38:43.487Z,7.00
2023-01-25T04:41:09.915Z,7.63
2023-01-25T04:43:36.347Z,6.57
2023-01-25T04:46:03.071Z,7.20
2023-01-25T04:48:29.891Z,6.90
2023-01-25T04:50:56.365Z,6.75
2023-01-25T04:53:22.808Z,6.13
2023-01-25T04:55:49.570Z,5.43
2023-01-25T04:58:16.045Z,6.70
2023-01-25T05:00:42.460Z,6.72
2023-01-25T05:03:08.846Z,6.30
2023-01-25T05:05:35.231Z,6.45
2023-01-25T05:08:01.701Z,6.35
2023-01-25T05:10:28.093Z,6.65
2023-01-25T05:12:54.521Z,6.28
2023-01-25T05:15:20.947Z,7.05
2023-01-25T05:17:47.900Z,5.85
2023-01-25T05:20:14.480Z,6.63
2023-01-25T05:22:40.879Z,6.97
2023-01-25T05:25:27.662Z,7.30
2023-01-25T05:27:54.065Z,6.30
2023-01-25T05:30:20.485Z,6.68
2023-01-25T05:32:48.513Z,6.20
2023-01-25T05:35:14.983Z,4.82
2023-01-25T05:37:41.438Z,6.57
2023-01-25T05:40:08.495Z,5.78
2023-01-25T05:42:34.943Z,5.85
2023-01-25T05:45:01.377Z,8.40
2023-01-25T05:47:27.913Z,6.18
2023-01-25T05:49:54.372Z,5.88
2023-01-25T05:52:20.909Z,5.50
2023-01-25T05:54:48.983Z,5.40
2023-01-25T05:57:16.139Z,6.15
2023-01-25T05:59:42.618Z,5.68
2023-01-25T06:02:09.076Z,7.72
2023-01-25T06:04:35.639Z,9.10
2023-01-25T06:07:02.050Z,5.85
2023-01-25T06:09:29.506Z,7.90
2023-01-25T06:11:55.897Z,5.88
2023-01-25T06:14:23.817Z,5.55
2023-01-25T06:16:50.206Z,5.97
2023-01-25T06:19:16.663Z,6.07
2023-01-25T06:21:43.072Z,6.63
2023-01-25T06:24:09.655Z,6.22
2023-01-25T06:26:36.076Z,6.18
2023-01-25T06:29:05.765Z,7.22
2023-01-25T06:31:32.276Z,6.60
2023-01-25T06:34:01.146Z,6.30
2023-01-25T06:36:27.673Z,7.70
2023-01-25T06:38:54.072Z,7.10
2023-01-25T06:41:20.706Z,7.40
2023-01-25T06:43:49.811Z,5.97
2023-01-25T06:48:45.623Z,4.80
2023-01-25T06:51:13.977Z,5.50
2023-01-25T06:53:42.971Z,5.45
2023-01-25T06:56:11.988Z,5.72
2023-01-25T07:01:08.486Z,5.00
2023-01-25T07:03:35.075Z,5.15
2023-01-25T07:06:06.667Z,5.47
2023-01-25T07:08:34.885Z,5.93
2023-01-25T07:11:04.351Z,5.95
2023-01-25T07:13:32.956Z,5.47
2023-01-25T07:16:01.759Z,5.70
2023-01-25T07:18:30.030Z,6.65
2023-01-25T07:21:06.968Z,6.50
2023-01-25T07:23:34.584Z,6.38
2023-01-25T07:26:01.384Z,6.20
2023-01-25T07:40:20.476Z,5.97
2023-01-25T07:42:46.874Z,6.20
2023-01-25T07:45:13.407Z,5.57
2023-01-25T07:47:39.808Z,5.72
2023-01-25T07:50:06.748Z,6.55
2023-01-25T07:52:33.156Z,6.65
2023-01-25T07:54:59.547Z,6.88
2023-01-25T07:57:25.938Z,6.45
2023-01-25T07:59:52.340Z,6.13
2023-01-25T08:02:18.706Z,6.78
2023-01-25T08:04:45.689Z,5.97
2023-01-25T08:07:13.751Z,8.48
2023-01-25T08:09:41.842Z,6.90
2023-01-25T08:12:08.830Z,5.65
2023-01-25T08:14:35.343Z,8.00
2023-01-25T08:17:02.193Z,8.65
2023-01-25T08:19:28.649Z,7.18
2023-01-25T08:21:55.094Z,8.27
2023-01-25T08:24:22.510Z,9.55
2023-01-25T08:26:51.285Z,7.95
2023-01-25T08:29:17.862Z,7.43
2023-01-25T08:31:45.160Z,5.88
2023-01-25T08:34:11.711Z,6.65
2023-01-25T08:36:38.166Z,6.60
2023-01-25T08:39:07.734Z,6.72
2023-01-25T08:41:35.412Z,6.40
2023-01-25T08:44:01.918Z,7.03
2023-01-25T08:46:33.220Z,7.20
2023-01-25T08:49:01.941Z,6.32
2023-01-25T08:51:29.036Z,8.05
2023-01-25T08:53:55.466Z,7.90
2023-01-25T08:56:21.951Z,8.50
2023-01-25T08:58:49.884Z,7.30
2023-01-25T09:01:19.078Z,7.25
2023-01-25T09:06:14.121Z,7.05
2023-01-25T09:08:40.580Z,7.45
2023-01-25T09:11:14.990Z,6.45
2023-01-25T09:13:44.297Z,6.70
2023-01-25T09:16:15.580Z,7.28
2023-01-25T09:18:43.453Z,8.05
2023-01-25T09:21:15.304Z,8.10
2023-01-25T09:23:51.096Z,8.00
2023-01-25T09:26:18.975Z,6.75
2023-01-25T09:28:53.027Z,6.82
2023-01-25T09:31:23.384Z,7.38
2023-01-25T09:33:52.145Z,6.43
2023-01-25T09:36:19.304Z,5.88
2023-01-25T09:38:45.928Z,6.63
2023-01-25T09:41:39.062Z,6.45
2023-01-25T09:44:17.591Z,6.03
2023-01-25T09:46:56.738Z,6.00
2023-01-25T09:49:44.220Z,6.32
2023-01-25T09:52:25.593Z,7.25
2023-01-25T09:54:52.919Z,6.97
2023-01-25T09:57:30.722Z,7.00
2023-01-25T09:59:57.589Z,7.47
2023-01-25T10:02:30.171Z,6.00
2023-01-25T10:05:06.438Z,5.88
2023-01-25T10:07:54.628Z,6.00
2023-01-25T10:10:27.976Z,5.95
2023-01-25T10:12:54.383Z,7.05
2023-01-25T10:15:24.152Z,5.43
2023-01-25T10:18:01.788Z,6.28
2023-01-25T10:20:49.529Z,5.80
2023-01-25T10:23:29.456Z,6.63
2023-01-25T10:26:03.293Z,6.32
2023-01-25T10:28:30.210Z,5.45
2023-01-25T10:31:04.819Z,6.30
2023-01-25T10:33:37.957Z,6.10
2023-01-25T10:36:05.346Z,6.60
2023-01-25T10:38:45.301Z,6.03
2023-01-25T10:41:26.943Z,6.97
2023-01-25T10:44:13.418Z,5.35
2023-01-25T10:47:07.454Z,6.35
2023-01-25T10:49:40.415Z,5.78
2023-01-25T10:52:16.931Z,5.97
2023-01-25T10:54:43.838Z,6.15
2023-01-25T10:57:16.989Z,5.63
2023-01-25T10:59:46.878Z,6.78
2023-01-25T11:02:35.090Z,6.45
2023-01-25T11:05:29.671Z,6.50
2023-01-25T11:07:57.212Z,6.00
2023-01-25T11:10:35.971Z,6.18
2023-01-25T11:13:17.325Z,6.28
2023-01-25T11:15:53.170Z,6.22
2023-01-25T11:18:28.546Z,12.10
2023-01-25T11:21:19.401Z,6.28
2023-01-25T11:23:59.465Z,8.02
2023-01-25T11:26:26.068Z,6.35
2023-01-25T11:29:07.223Z,6.20
2023-01-25T11:31:34.124Z,6.75
2023-01-25T11:34:00.666Z,6.07
2023-01-25T11:36:38.334Z,6.63
2023-01-25T11:39:40.322Z,6.25
2023-01-25T11:42:18.191Z,6.95
2023-01-25T11:45:13.909Z,7.75
2023-01-25T11:47:46.373Z,6.65
2023-01-25T11:50:28.166Z,8.60
2023-01-25T11:53:13.023Z,8.82
2023-01-25T11:56:03.842Z,8.00
2023-01-25T11:58:56.907Z,9.65
2023-01-25T12:01:38.337Z,7.25
2023-01-25T12:04:35.774Z,8.05
2023-01-25T12:07:32.596Z,8.35
2023-01-25T12:10:20.433Z,7.40
2023-01-25T12:13:16.099Z,8.05
2023-01-25T12:16:00.890Z,7.43
2023-01-25T12:18:44.627Z,9.27
2023-01-25T12:21:43.735Z,6.72
2023-01-25T12:24:23.822Z,7.28
2023-01-25T12:27:10.216Z,8.38
2023-01-25T12:29:45.124Z,7.80
2023-01-25T12:32:27.077Z,7.78
2023-01-25T12:35:25.421Z,7.13
2023-01-25T12:38:00.525Z,9.20
2023-01-25T12:40:37.505Z,14.88
2023-01-25T12:43:09.761Z,7.68
2023-01-25T12:45:38.183Z,8.30
2023-01-25T12:48:16.952Z,7.55
2023-01-25T12:50:57.067Z,6.38
2023-01-25T12:53:38.983Z,6.75
2023-01-25T12:56:18.584Z,7.10
2023-01-25T12:58:55.393Z,7.43
2023-01-25T13:01:38.043Z,7.15
2023-01-25T13:04:37.091Z,6.88
2023-01-25T13:07:54.381Z,6.93
2023-01-25T13:10:27.138Z,6.22
2023-01-25T13:13:03.656Z,7.07
2023-01-25T13:15:43.674Z,7.30
2023-01-25T13:18:28.444Z,9.73
2023-01-25T13:21:00.295Z,10.38
2023-01-25T13:23:47.584Z,7.70
2023-01-25T13:26:28.235Z,8.38
2023-01-25T13:29:01.383Z,7.13
2023-01-25T13:31:51.523Z,8.30
2023-01-25T13:34:40.298Z,8.77
2023-01-25T13:37:26.158Z,9.43
2023-01-25T13:40:08.803Z,10.55
2023-01-25T13:42:38.677Z,6.88
2023-01-25T13:45:13.289Z,9.65
2023-01-25T13:47:42.552Z,7.15
2023-01-25T13:50:26.858Z,7.35
2023-01-25T13:53:06.010Z,7.30
2023-01-25T13:55:42.240Z,11.15
2023-01-25T13:58:29.973Z,8.50
2023-01-25T14:01:06.462Z,8.13
2023-01-25T14:03:56.078Z,8.45
2023-01-25T14:06:25.516Z,9.43
2023-01-25T14:08:54.195Z,8.45
2023-01-25T14:11:22.830Z,6.50
2023-01-25T14:14:14.062Z,7.95
2023-01-25T14:16:40.542Z,7.40
2023-01-25T14:19:29.697Z,7.55
2023-01-25T14:22:22.195Z,6.50
2023-01-25T14:25:11.846Z,7.05
2023-01-25T14:27:50.007Z,6.38
2023-01-25T14:30:22.433Z,8.18
2023-01-25T14:32:50.887Z,9.77
2023-01-25T14:35:42.466Z,13.25
2023-01-25T14:38:31.786Z,8.05
2023-01-25T14:41:00.761Z,9.20
2023-01-25T14:43:28.401Z,6.40
2023-01-25T14:45:54.877Z,6.90
2023-01-25T14:48:38.359Z,6.85
2023-01-25T14:51:11.662Z,7.63
2023-01-25T14:53:42.952Z,7.43
2023-01-25T14:56:29.809Z,7.43
2023-01-25T14:59:00.042Z,7.40
2023-01-25T15:01:35.938Z,7.07
2023-01-25T15:04:03.390Z,6.28
2023-01-25T15:06:29.834Z,7.95
2023-01-25T15:08:56.337Z,8.10
2023-01-25T15:11:35.427Z,7.10
2023-01-25T15:14:05.819Z,8.05
2023-01-25T15:16:36.218Z,6.72
2023-01-25T15:19:02.912Z,6.93
2023-01-25T15:21:30.407Z,6.90
2023-01-25T15:23:59.085Z,7.07
2023-01-25T15:26:30.995Z,6.97
2023-01-25T15:29:00.372Z,10.55
2023-01-25T15:31:28.307Z,6.88
2023-01-25T15:33:59.168Z,8.02
2023-01-25T15:36:26.121Z,6.80
2023-01-25T15:38:52.649Z,7.22
2023-01-25T15:41:19.440Z,7.10
2023-01-25T15:43:46.918Z,7.30
2023-01-25T15:46:21.609Z,7.35
2023-01-25T15:48:50.260Z,8.13
2023-01-25T15:51:17.203Z,7.55
2023-01-25T15:53:43.712Z,7.13
2023-01-25T15:56:14.258Z,7.55
2023-01-25T15:58:43.056Z,7.43
2023-01-25T16:01:09.813Z,7.20
2023-01-25T16:03:36.316Z,7.68
2023-01-25T16:06:16.671Z,7.82
2023-01-25T16:08:43.085Z,7.53
2023-01-25T16:11:09.517Z,9.05
2023-01-25T16:13:35.994Z,8.43
2023-01-25T16:16:02.717Z,8.13
2023-01-25T16:18:29.164Z,8.48
2023-01-25T16:20:55.603Z,10.13
2023-01-25T16:23:21.992Z,8.93
2023-01-25T16:25:49.382Z,8.00
2023-01-25T16:28:16.568Z,8.40
2023-01-25T16:30:49.816Z,7.85
2023-01-25T16:33:16.380Z,8.25
2023-01-25T16:35:42.801Z,8.52
2023-01-25T16:38:11.587Z,7.95
2023-01-25T16:40:39.634Z,7.10
2023-01-25T16:43:06.113Z,9.77
2023-01-25T16:45:32.642Z,8.00
2023-01-25T16:47:59.053Z,7.55
2023-01-25T16:50:25.503Z,8.98
2023-01-25T16:52:51.960Z,8.15
2023-01-25T16:55:19.374Z,7.53
2023-01-25T16:57:50.151Z,7.63
2023-01-25T17:00:17.170Z,9.13
2023-01-25T17:02:57.218Z,7.93
2023-01-25T17:05:27.766Z,7.45
2023-01-25T17:07:54.546Z,8.30
2023-01-25T17:10:20.952Z,9.57
2023-01-25T17:12:47.693Z,8.68
2023-01-25T17:15:14.193Z,8.23
2023-01-25T17:17:40.617Z,8.20
2023-01-25T17:20:08.878Z,8.60
2023-01-25T17:22:37.497Z,8.45
2023-01-25T17:25:07.322Z,7.53
2023-01-25T17:27:33.810Z,10.82
2023-01-25T17:30:00.242Z,10.70
2023-01-25T17:32:26.725Z,10.20
2023-01-25T17:34:53.815Z,9.77
2023-01-25T17:37:20.295Z,9.75
2023-01-25T17:39:47.722Z,11.10
2023-01-25T17:42:14.709Z,8.90
2023-01-25T17:44:41.183Z,9.15
2023-01-25T17:47:07.678Z,10.35
2023-01-25T17:49:34.127Z,10.15
2023-01-25T17:52:02.047Z,10.27
2023-01-25T17:54:28.542Z,8.07
2023-01-25T17:56:55.033Z,9.30
2023-01-25T17:59:21.724Z,8.25
2023-01-25T18:01:49.235Z,8.32
2023-01-25T18:04:17.652Z,8.27
2023-01-25T18:06:44.352Z,8.07
2023-01-25T18:09:10.810Z,9.20
2023-01-25T18:11:40.300Z,8.57
2023-01-25T18:14:12.757Z,8.27
2023-01-25T18:16:41.206Z,8.50
2023-01-25T18:19:08.232Z,8.10
2023-01-25T18:21:35.901Z,9.02
2023-01-25T18:24:22.514Z,8.52
2023-01-25T18:26:50.220Z,7.93
2023-01-25T18:29:16.611Z,8.38
2023-01-25T18:31:43.100Z,8.82
2023-01-25T18:34:09.575Z,8.90
2023-01-25T18:36:36.012Z,8.52
2023-01-25T18:39:03.389Z,8.27
2023-01-25T18:41:29.799Z,7.93
2023-01-25T18:43:56.704Z,8.13
2023-01-25T18:46:23.299Z,8.57
2023-01-25T18:48:50.983Z,9.30
2023-01-25T18:51:17.939Z,8.85
2023-01-25T18:53:47.363Z,8.27
2023-01-25T18:56:19.698Z,8.90
2023-01-25T18:58:47.324Z,9.15
2023-01-25T19:01:14.219Z,10.27
2023-01-25T19:03:41.856Z,9.00
2023-01-25T19:06:08.435Z,10.23
2023-01-25T19:08:43.129Z,10.48
2023-01-25T19:11:14.388Z,11.60
2023-01-25T19:13:42.356Z,11.38
2023-01-25T19:16:19.619Z,9.75
2023-01-25T19:18:49.623Z,9.20
2023-01-25T19:21:21.672Z,10.63
2023-01-25T19:23:48.345Z,10.60
2023-01-25T19:26:17.871Z,10.52
2023-01-25T19:28:45.459Z,10.43
2023-01-25T19:31:17.529Z,10.13
2023-01-25T19:33:44.949Z,10.68
2023-01-25T19:36:15.519Z,10.95
2023-01-25T19:38:43.155Z,9.38
2023-01-25T19:41:18.563Z,11.60
2023-01-25T19:43:45.069Z,10.25
2023-01-25T19:46:16.010Z,9.63
2023-01-25T19:48:43.442Z,10.20
2023-01-25T19:51:12.139Z,10.63
2023-01-25T19:53:40.765Z,11.18
2023-01-25T19:56:09.181Z,11.68
2023-01-25T19:58:35.626Z,11.40
2023-01-25T20:01:09.525Z,10.02
2023-01-25T20:03:36.936Z,11.15
2023-01-25T20:06:05.108Z,10.98
2023-01-25T20:08:32.586Z,13.82
2023-01-25T20:11:00.957Z,10.55
2023-01-25T20:13:27.755Z,8.32
2023-01-25T20:15:54.289Z,8.90
2023-01-25T20:18:21.265Z,9.60
2023-01-25T20:20:58.360Z,8.98
2023-01-25T20:23:25.291Z,9.18
2023-01-25T20:25:57.843Z,8.98
2023-01-25T20:28:24.619Z,8.27
2023-01-25T20:30:51.107Z,9.00
2023-01-25T20:33:18.150Z,8.75
2023-01-25T20:35:45.492Z,9.63
2023-01-25T20:38:12.054Z,8.77
2023-01-25T20:40:38.846Z,11.57
2023-01-25T20:43:05.346Z,9.20
2023-01-25T20:45:31.741Z,7.32
2023-01-25T20:47:58.232Z,7.80
2023-01-25T20:50:24.624Z,9.13
2023-01-25T20:52:51.020Z,8.88
2023-01-25T20:55:17.478Z,8.65
2023-01-25T20:57:43.936Z,9.23
2023-01-25T21:00:10.935Z,8.80
2023-01-25T21:02:40.399Z,10.57
2023-01-25T21:05:07.170Z,10.02
2023-01-25T21:07:33.558Z,9.90
2023-01-25T21:09:59.955Z,9.18
2023-01-25T21:12:26.690Z,10.10
2023-01-25T21:14:53.089Z,9.88
2023-01-25T21:17:19.486Z,9.02
2023-01-25T21:19:47.845Z,8.43
2023-01-25T21:22:14.433Z,8.35
2023-01-25T21:24:40.860Z,10.07
2023-01-25T21:27:08.002Z,9.45
2023-01-25T21:29:34.438Z,10.63
2023-01-25T21:32:00.913Z,10.50
2023-01-25T21:34:27.362Z,10.27
2023-01-25T21:36:54.489Z,10.02
2023-01-25T21:39:20.915Z,10.68
2023-01-25T21:41:47.496Z,10.45
2023-01-25T21:44:32.525Z,12.05
2023-01-25T21:50:04.047Z,10.43
2023-01-25T21:52:30.429Z,10.18
2023-01-25T21:54:56.837Z,11.30
2023-01-25T21:57:23.256Z,9.57
2023-01-25T21:59:50.940Z,9.57
2023-01-25T22:02:18.383Z,9.70
2023-01-25T22:04:44.855Z,10.63
2023-01-25T22:07:11.763Z,10.70
2023-01-25T22:09:38.231Z,11.15
2023-01-25T22:12:04.766Z,9.48
2023-01-25T22:14:31.189Z,9.15
2023-01-25T22:16:58.083Z,9.70
2023-01-25T22:19:24.555Z,9.63
2023-01-25T22:21:50.964Z,9.57
2023-01-25T22:24:17.618Z,10.98
2023-01-25T22:27:02.635Z,9.82
2023-01-25T22:29:29.871Z,10.93
2023-01-25T22:31:56.783Z,11.40
2023-01-25T22:34:23.229Z,10.98
2023-01-25T22:36:49.775Z,10.55
2023-01-25T22:39:16.406Z,10.75
2023-01-25T22:41:42.913Z,10.40
2023-01-25T22:44:09.944Z,10.55
2023-01-25T22:46:37.043Z,9.52
2023-01-25T22:49:04.750Z,10.43
2023-01-25T22:51:31.312Z,12.20
2023-01-25T22:53:59.149Z,11.45
2023-01-25T22:56:28.297Z,11.40
2023-01-25T22:58:54.956Z,11.55
2023-01-25T23:01:30.459Z,10.75
2023-01-25T23:03:57.183Z,12.25
2023-01-25T23:06:27.099Z,11.68
2023-01-25T23:09:01.588Z,10.85
2023-01-25T23:11:32.304Z,11.57
2023-01-25T23:14:18.501Z,12.07
2023-01-25T23:16:45.182Z,10.80
2023-01-25T23:19:11.812Z,12.30
2023-01-25T23:21:38.568Z,11.15
2023-01-25T23:24:05.359Z,11.35
2023-01-25T23:26:37.706Z,10.48
2023-01-25T23:29:07.162Z,11.30
2023-01-25T23:31:33.828Z,12.38
2023-01-25T23:34:02.867Z,12.30
2023-01-25T23:36:31.729Z,10.93
2023-01-25T23:38:59.526Z,11.45
2023-01-25T23:41:28.318Z,10.48
2023-01-25T23:43:55.930Z,11.05
2023-01-25T23:46:23.402Z,11.15
2023-01-25T23:48:50.209Z,11.23
2023-01-25T23:51:17.703Z,11.65
2023-01-25T23:53:44.187Z,12.45
2023-01-25T23:56:19.812Z,11.00
